Time;durP1;ratioP1;P1;durP2;ratioP2;P2;SDS_P1;SDS_P2;PMS_P1;PMS_P2;Temp;Humidity;BMP_temperature;BMP_pressure;BME280_temperature;BME280_humidity;BME280_pressure;Samples;Min_cycle;Max_cycle;Signal;HPM_P1;HPM_P2
2022/01/12 00:01:27;;;;;;;;;91.00;67.00;;;;;-5.91;91.49;101046.59;6313894;20;2891909;-39
2022/01/12 00:03:57;;;;;;;;;94.00;67.33;;;;;-6.22;91.37;101047.53;6314597;20;3660678;-42
2022/01/12 00:06:28;;;;;;;;;94.67;67.00;;;;;-6.48;92.39;101047.66;6316531;20;3649269;-40
2022/01/12 00:09:04;;;;;;;;;88.00;66.00;;;;;-6.66;93.29;101047.09;6317035;20;3656475;-40
2022/01/12 00:11:38;;;;;;;;;81.50;60.50;;;;;-6.49;93.48;101047.63;6313222;20;2892051;-40
2022/01/12 00:14:06;;;;;;;;;70.00;54.00;;;;;-6.28;93.16;101047.34;6285946;20;2502332;-40
2022/01/12 00:16:35;;;;;;;;;80.00;57.00;;;;;-5.63;90.16;101045.63;6284085;20;2881498;-42
2022/01/12 00:19:05;;;;;;;;;73.33;53.67;;;;;-6.18;90.92;101054.63;6283230;20;2875338;-40
2022/01/12 00:21:33;;;;;;;;;70.00;54.00;;;;;-6.57;92.69;101051.75;6315571;20;2499199;-39
2022/01/12 00:24:02;;;;;;;;;78.50;57.00;;;;;-6.63;92.98;101060.28;6283927;20;2880490;-40
2022/01/12 00:34:54;;;;;;;;;70.33;48.00;;;;;-6.79;93.95;101052.81;6282442;20;3629408;-42
2022/01/12 00:37:23;;;;;;;;;48.00;41.33;;;;;-6.63;93.77;101065.50;6315758;20;3602383;-42
2022/01/12 00:39:57;;;;;;;;;60.00;46.00;;;;;-6.54;93.38;101065.75;6279202;20;2508591;-40
2022/01/12 00:42:28;;;;;;;;;62.00;46.00;;;;;-6.16;93.02;101073.84;6315923;20;2510796;-40
2022/01/12 00:45:00;;;;;;;;;51.00;48.00;;;;;-6.62;92.35;101072.50;6280923;20;2861780;-39
2022/01/12 00:47:29;;;;;;;;;75.00;51.50;;;;;-6.81;93.26;101078.00;6284553;20;2892294;-40
2022/01/12 00:49:58;;;;;;;;;49.00;41.00;;;;;-6.56;93.76;101077.88;6281189;20;2869022;-40
2022/01/12 00:52:26;;;;;;;;;70.00;49.00;;;;;-6.70;93.57;101076.59;6281939;20;2510716;-39
2022/01/12 00:54:55;;;;;;;;;65.67;45.00;;;;;-6.78;93.97;101078.09;6277185;20;2900352;-40
2022/01/12 00:57:24;;;;;;;;;57.50;48.00;;;;;-6.66;93.22;101081.06;6313661;20;2867996;-40
2022/01/12 00:59:53;;;;;;;;;61.50;48.50;;;;;-6.75;93.26;101075.56;6281856;20;2875280;-40
2022/01/12 01:02:22;;;;;;;;;52.00;41.67;;;;;-6.83;93.74;101085.78;6283189;20;3610685;-39
2022/01/12 01:04:50;;;;;;;;;54.50;39.00;;;;;-6.94;94.21;101079.34;6281418;20;2880444;-40
2022/01/12 01:07:18;;;;;;;;;59.50;45.00;;;;;-6.73;93.79;101084.34;6279816;20;2502413;-40
2022/01/12 01:09:56;;;;;;;;;50.33;40.00;;;;;-6.68;93.44;101077.53;6282559;20;2877361;-40
2022/01/12 01:12:24;;;;;;;;;37.50;34.50;;;;;-6.64;92.86;101087.22;6312136;20;2868084;-42
2022/01/12 01:25:55;;;;;;;;;45.67;31.67;;;;;-6.32;90.47;101088.19;6309525;20;2880448;-39
2022/01/12 01:28:23;;;;;;;;;44.00;39.50;;;;;-6.58;91.09;101089.13;6310754;20;2502377;-39
2022/01/12 01:30:52;;;;;;;;;47.67;33.33;;;;;-6.75;91.77;101083.41;6279674;20;3624294;-41
2022/01/12 01:33:22;;;;;;;;;50.50;39.50;;;;;-6.64;92.32;101082.88;6280490;20;2502387;-41
2022/01/12 01:35:56;;;;;;;;;23.33;22.67;;;;;-6.76;92.18;101086.88;6283865;20;3579643;-40
2022/01/12 01:38:25;;;;;;;;;49.33;40.00;;;;;-6.84;92.57;101089.22;6312491;20;3609356;-42
2022/01/12 01:40:54;;;;;;;;;41.00;28.00;;;;;-6.75;92.57;101086.91;6280755;20;2878394;-40
2022/01/12 01:43:42;;;;;;;;;38.67;31.67;;;;;-6.80;92.78;101087.59;6281600;20;3602359;-40
2022/01/12 01:54:32;;;;;;;;;61.00;42.50;;;;;-7.39;91.32;101109.19;6280423;20;2883722;-41
2022/01/12 01:57:00;;;;;;;;;60.00;46.00;;;;;-7.61;91.37;101099.75;6277625;20;2502411;-43
2022/01/12 01:59:27;;;;;;;;;63.00;45.00;;;;;-7.62;92.92;101097.09;6277674;20;2502564;-41
2022/01/12 02:01:55;;;;;;;;;47.00;38.00;;;;;-7.33;93.61;101100.69;6275354;20;2870059;-41
2022/01/12 02:04:23;;;;;;;;;49.00;43.00;;;;;-7.18;92.92;101098.59;6279767;20;2885703;-42
2022/01/12 02:06:54;;;;;;;;;46.00;33.00;;;;;-7.20;93.22;101101.97;6281368;20;2502583;-42
2022/01/12 02:09:22;;;;;;;;;54.00;41.00;;;;;-7.24;93.56;101100.09;6282605;20;2868209;-45
2022/01/12 02:11:54;;;;;;;;;44.00;33.50;;;;;-7.15;93.36;101101.28;6277751;20;2874322;-41
2022/01/12 02:14:23;;;;;;;;;53.50;47.00;;;;;-7.37;93.82;101098.78;6278608;20;2872176;-42
2022/01/12 02:17:18;;;;;;;;;54.00;45.00;;;;;-7.35;93.98;101097.13;6277565;20;2502446;-42
2022/01/12 02:36:32;;;;;;;;;33.00;27.67;;;;;-7.11;92.22;101103.19;6309896;20;3593041;-43
2022/01/12 02:41:49;;;;;;;;;33.33;24.67;;;;;-7.33;93.22;101091.13;6276860;20;3584855;-42
2022/01/12 02:55:28;;;;;;;;;55.00;41.00;;;;;-9.24;93.88;101110.06;6281486;20;2891949;-43
2022/01/12 02:57:56;;;;;;;;;51.00;37.00;;;;;-9.29;93.89;101113.41;6279760;20;2875239;-42
2022/01/12 03:00:34;;;;;;;;;54.50;45.00;;;;;-9.30;94.25;101113.31;6281359;20;2510693;-43
2022/01/12 03:03:03;;;;;;;;;47.33;35.33;;;;;-9.03;94.32;101112.66;6285375;20;3611889;-41
2022/01/12 03:05:35;;;;;;;;;46.67;40.00;;;;;-9.03;94.33;101121.34;6284175;20;3611740;-42
2022/01/12 03:08:11;;;;;;;;;50.00;42.00;;;;;-8.86;93.60;101124.66;6278647;20;2867125;-41
2022/01/12 03:10:39;;;;;;;;;48.50;44.00;;;;;-8.44;93.43;101117.63;6279603;20;2868000;-41
2022/01/12 03:13:08;;;;;;;;;51.33;32.00;;;;;-8.73;93.91;101120.81;6279134;20;3632626;-43
2022/01/12 03:15:40;;;;;;;;;53.00;31.33;;;;;-8.68;94.65;101112.34;6280044;20;3637750;-40
2022/01/12 03:18:09;;;;;;;;;45.00;30.50;;;;;-8.62;95.33;101114.31;6282100;20;2870055;-42
2022/01/12 03:20:38;;;;;;;;;50.00;40.00;;;;;-8.57;95.17;101115.38;6278523;20;2880445;-41
2022/01/12 03:23:06;;;;;;;;;54.50;36.50;;;;;-8.66;96.15;101110.72;6278700;20;2502354;-42
2022/01/12 03:25:35;;;;;;;;;48.00;37.20;;;;;-8.75;96.33;101107.72;6283089;20;3606525;-43
2022/01/12 03:28:06;;;;;;;;;46.00;36.00;;;;;-8.44;96.46;101111.53;6282542;20;2875377;-42
2022/01/12 03:30:47;;;;;;;;;49.50;36.50;;;;;-8.53;96.07;101116.38;6283596;20;2863813;-44
2022/01/12 03:34:04;;;;;;;;;48.50;38.00;;;;;-8.95;96.26;101116.47;6285703;20;2871121;-40
2022/01/12 03:39:07;;;;;;;;;51.50;42.50;;;;;-8.29;94.22;101126.78;6284242;20;2877488;-41
2022/01/12 03:41:36;;;;;;;;;75.00;55.00;;;;;-9.01;95.03;101127.50;6281618;20;2888834;-40
2022/01/12 03:44:09;;;;;;;;;56.00;47.00;;;;;-9.48;95.13;101123.84;6282268;20;2502379;-40
2022/01/12 03:46:50;;;;;;;;;54.67;36.67;;;;;-9.55;95.49;101122.69;6279696;20;3625268;-40
2022/01/12 03:49:22;;;;;;;;;48.67;41.67;;;;;-9.01;95.73;101121.44;6284967;20;3618988;-40
2022/01/12 03:51:51;;;;;;;;;58.40;40.60;;;;;-8.91;94.43;101128.78;6281695;20;3649171;-40
2022/01/12 03:54:21;;;;;;;;;54.75;39.75;;;;;-9.28;94.98;101122.97;6283554;20;3638758;-40
2022/01/12 03:56:50;;;;;;;;;63.60;45.60;;;;;-9.27;95.50;101134.25;6314416;20;3647100;-40
2022/01/12 03:59:18;;;;;;;;;65.50;48.00;;;;;-9.28;95.87;101132.47;6283395;20;2881510;-41
2022/01/12 04:01:47;;;;;;;;;51.00;40.00;;;;;-9.19;95.97;101138.03;6281504;20;2872115;-42
2022/01/12 04:04:23;;;;;;;;;58.00;40.00;;;;;-9.34;96.64;101143.50;6279121;20;2502406;-40
2022/01/12 04:09:45;;;;;;;;;73.20;51.60;;;;;-8.34;95.42;101144.88;6281736;20;3642034;-42
2022/01/12 04:12:16;;;;;;;;;63.00;48.00;;;;;-8.48;94.22;101151.28;6282795;20;2873337;-41
2022/01/12 04:14:45;;;;;;;;;73.40;54.80;;;;;-9.17;95.17;101146.81;6284444;20;3624310;-43
2022/01/12 04:17:15;;;;;;;;;81.33;57.67;;;;;-8.81;94.80;101145.66;6283803;20;2904549;-41
2022/01/12 04:19:43;;;;;;;;;68.40;40.20;;;;;-8.79;95.14;101152.69;6311618;20;3653357;-40
2022/01/12 04:24:59;;;;;;;;;72.60;55.00;;;;;-9.25;95.71;101145.59;6281109;20;3630451;-41
2022/01/12 04:27:27;;;;;;;;;72.50;52.00;;;;;-9.44;97.26;101135.28;6280433;20;2885667;-40
2022/01/12 04:29:55;;;;;;;;;66.00;48.00;;;;;-9.32;97.45;101131.47;6281449;20;2495062;-40
2022/01/12 04:32:25;;;;;;;;;66.60;50.00;;;;;-9.14;97.13;101138.25;6285477;20;3610185;-40
2022/01/12 04:34:54;;;;;;;;;66.40;45.20;;;;;-8.59;96.79;101142.19;6279898;20;3651727;-40
2022/01/12 04:37:22;;;;;;;;;53.00;37.00;;;;;-8.66;95.16;101146.25;6283440;20;2894011;-41
2022/01/12 04:39:51;;;;;;;;;68.20;55.60;;;;;-9.49;95.79;101142.88;6283502;20;3611188;-40
2022/01/12 04:42:19;;;;;;;;;65.40;49.40;;;;;-9.51;96.87;101145.38;6281107;20;3636707;-40
2022/01/12 04:44:58;;;;;;;;;61.60;48.60;;;;;-8.70;95.18;101150.44;6281984;20;3606472;-40
2022/01/12 04:50:13;;;;;;;;;63.60;46.80;;;;;-8.85;95.51;101144.63;6281550;20;3632528;-44
2022/01/12 04:52:42;;;;;;;;;60.50;43.50;;;;;-8.55;94.99;101142.38;6280364;20;2890888;-42
2022/01/12 04:55:11;;;;;;;;;54.00;41.50;;;;;-8.67;94.12;101150.56;6283438;20;3631550;-44
2022/01/12 04:57:40;;;;;;;;;51.50;42.50;;;;;-8.52;94.11;101145.09;6315189;20;2882523;-41
2022/01/12 05:00:17;;;;;;;;;63.00;47.00;;;;;-9.23;93.89;101156.97;6282183;20;2895194;-42
2022/01/12 05:13:50;;;;;;;;;74.40;51.20;;;;;-8.36;93.28;101143.91;6281970;20;3655503;-41
2022/01/12 05:16:20;;;;;;;;;78.50;58.00;;;;;-8.78;93.68;101148.38;6278825;20;2885690;-40
2022/01/12 05:18:54;;;;;;;;;81.50;60.00;;;;;-8.51;93.49;101149.44;6278338;20;2898284;-40
2022/01/12 05:21:24;;;;;;;;;77.00;51.50;;;;;-8.66;93.61;101160.16;6312361;20;2887724;-40
2022/01/12 05:23:53;;;;;;;;;68.00;49.00;;;;;-8.86;94.39;101163.69;6279947;20;2890072;-41
2022/01/12 05:26:22;;;;;;;;;57.67;41.00;;;;;-9.03;94.45;101151.69;6282389;20;3623163;-40
2022/01/12 05:28:51;;;;;;;;;62.00;47.00;;;;;-10.41;94.26;101155.28;6279373;20;2875253;-41
2022/01/12 05:31:20;;;;;;;;;33.67;29.67;;;;;-10.94;95.12;101156.22;6282099;20;3600240;-42
2022/01/12 05:33:49;;;;;;;;;43.67;31.33;;;;;-10.17;95.17;101159.78;6280048;20;3623136;-41
2022/01/12 05:36:19;;;;;;;;;74.50;54.00;;;;;-10.51;94.67;101163.44;6280544;20;2879446;-41
2022/01/12 05:38:48;;;;;;;;;54.50;36.75;;;;;-10.74;94.75;101170.16;6280882;20;3642960;-42
2022/01/12 05:41:18;;;;;;;;;45.00;36.00;;;;;-10.62;95.31;101169.84;6309722;20;3616935;-41
2022/01/12 05:43:47;;;;;;;;;56.33;36.67;;;;;-10.07;93.59;101171.50;6278297;20;3641004;-41
2022/01/12 05:46:21;;;;;;;;;69.33;48.33;;;;;-10.40;92.67;101172.66;6282654;20;3629473;-40
2022/01/12 05:51:37;;;;;;;;;77.60;54.00;;;;;-10.36;93.69;101177.97;6277597;20;3622163;-41
2022/01/12 05:54:06;;;;;;;;;56.67;38.33;;;;;-10.35;94.14;101169.34;6279261;20;3633609;-41
2022/01/12 05:56:35;;;;;;;;;72.20;48.80;;;;;-9.71;92.92;101187.84;6281763;20;3647131;-41
2022/01/12 05:59:03;;;;;;;;;82.00;60.00;;;;;-10.14;92.41;101179.81;6279403;20;2874188;-41
2022/01/12 06:01:32;;;;;;;;;68.20;47.80;;;;;-10.57;93.64;101183.94;6275645;20;3626255;-41
2022/01/12 06:04:01;;;;;;;;;106.17;71.50;;;;;-10.40;94.83;101182.13;6278386;20;3678459;-41
2022/01/12 06:06:30;;;;;;;;;96.40;70.40;;;;;-10.27;95.15;101189.63;6310275;20;3658552;-41
2022/01/12 06:08:59;;;;;;;;;76.60;52.80;;;;;-9.76;94.55;101189.34;6277837;20;3649287;-41
2022/01/12 06:11:28;;;;;;;;;79.67;57.67;;;;;-9.42;94.51;101196.03;6277338;20;2905462;-40
2022/01/12 06:13:58;;;;;;;;;74.60;52.40;;;;;-9.50;92.91;101206.97;6313063;20;3640896;-41
2022/01/12 06:16:29;;;;;;;;;84.33;54.00;;;;;-10.21;94.78;101204.63;6277942;20;2901456;-41
2022/01/12 06:18:58;;;;;;;;;82.60;59.40;;;;;-10.70;95.21;101210.09;6308038;20;3625413;-41
2022/01/12 06:21:27;;;;;;;;;64.60;46.00;;;;;-10.48;95.45;101222.41;6278879;20;3648200;-41
2022/01/12 06:23:57;;;;;;;;;66.50;45.00;;;;;-9.87;93.42;101235.63;6280308;20;3654473;-40
2022/01/12 06:26:27;;;;;;;;;98.83;64.50;;;;;-9.71;92.13;101224.22;6309331;20;3681557;-41
2022/01/12 06:31:43;;;;;;;;;104.00;75.00;;;;;-10.64;94.83;101231.16;6274209;20;2559660;-41
2022/01/12 06:34:12;;;;;;;;;84.20;61.40;;;;;-10.19;95.35;101226.31;6274474;20;3635655;-40
2022/01/12 06:36:42;;;;;;;;;80.40;57.60;;;;;-9.69;95.27;101221.66;6277449;20;3618966;-40
2022/01/12 06:39:17;;;;;;;;;90.00;60.67;;;;;-9.38;94.67;101221.31;6272953;20;2913934;-42
2022/01/12 06:41:46;;;;;;;;;78.60;55.80;;;;;-9.46;94.92;101215.78;6308155;20;3632544;-40
2022/01/12 06:44:17;;;;;;;;;83.40;60.00;;;;;-9.37;95.16;101215.28;6279714;20;3653459;-41
2022/01/12 06:46:50;;;;;;;;;93.17;65.67;;;;;-8.67;93.56;101223.44;6280100;20;3681693;-41
2022/01/12 06:49:20;;;;;;;;;84.67;60.00;;;;;-8.98;92.39;101226.50;6311619;20;2900487;-41
2022/01/12 06:51:53;;;;;;;;;79.20;60.60;;;;;-9.43;93.42;101235.81;6309485;20;3647085;-41
2022/01/12 06:54:22;;;;;;;;;85.60;60.00;;;;;-9.91;94.22;101240.59;6277870;20;3658585;-41
2022/01/12 06:56:50;;;;;;;;;61.33;46.00;;;;;-10.63;94.24;101246.81;6279320;20;2890896;-41
2022/01/12 06:59:19;;;;;;;;;67.40;43.80;;;;;-10.73;94.24;101248.88;6309087;20;3658583;-40
2022/01/12 07:01:48;;;;;;;;;66.60;52.40;;;;;-10.50;94.33;101253.47;6273740;20;3609697;-41
2022/01/12 07:04:16;;;;;;;;;73.00;48.00;;;;;-9.47;92.03;101262.53;6279414;20;2875404;-40
2022/01/12 07:06:45;;;;;;;;;71.33;48.33;;;;;-9.57;90.17;101259.50;6274420;20;3610761;-40
2022/01/12 07:09:18;;;;;;;;;42.67;29.33;;;;;-9.73;90.71;101257.03;6282244;20;3620043;-41
2022/01/12 07:11:48;;;;;;;;;54.00;37.00;;;;;-9.61;91.58;101255.00;6280734;20;3627420;-41
2022/01/12 07:14:16;;;;;;;;;72.50;48.00;;;;;-9.35;92.17;101244.84;6282627;20;2872138;-41
2022/01/12 07:16:45;;;;;;;;;74.00;50.00;;;;;-9.15;92.51;101248.31;6282947;20;2892929;-48
2022/01/12 07:19:14;;;;;;;;;80.00;61.20;;;;;-9.18;92.85;101258.59;6280673;20;3638767;-42
2022/01/12 07:21:42;;;;;;;;;78.50;57.50;;;;;-8.95;93.03;101256.97;6279668;20;2885651;-41
2022/01/12 07:24:12;;;;;;;;;90.67;66.00;;;;;-8.98;92.73;101252.50;6284579;20;3666887;-43
2022/01/12 07:26:41;;;;;;;;;79.40;54.60;;;;;-9.17;92.37;101261.25;6311524;20;3646068;-42
2022/01/12 07:29:13;;;;;;;;;70.80;51.40;;;;;-8.43;91.87;101264.34;6281168;20;3642938;-40
2022/01/12 07:31:42;;;;;;;;;72.20;48.00;;;;;-8.32;90.24;101260.44;6279981;20;3635643;-41
2022/01/12 07:34:13;;;;;;;;;83.20;58.60;;;;;-8.85;90.80;101275.63;6277835;20;3658562;-41
2022/01/12 07:36:43;;;;;;;;;87.33;61.00;;;;;-8.38;91.17;101274.06;6283655;20;2904405;-41
2022/01/12 07:39:12;;;;;;;;;87.00;57.67;;;;;-8.03;91.25;101273.69;6312906;20;2898152;-41
2022/01/12 07:41:40;;;;;;;;;79.00;57.50;;;;;-7.89;90.88;101280.34;6311922;20;2502415;-40
2022/01/12 07:44:09;;;;;;;;;102.33;73.33;;;;;-7.62;90.90;101277.88;6292483;20;3684766;-41
2022/01/12 07:46:39;;;;;;;;;80.40;58.60;;;;;-7.84;91.92;101289.22;6318301;20;3626287;-40
2022/01/12 07:49:08;;;;;;;;;82.80;63.00;;;;;-8.11;91.77;101298.56;6286550;20;3651286;-40
2022/01/12 07:51:37;;;;;;;;;93.67;69.67;;;;;-7.24;89.20;101306.22;6285740;20;3664879;-41
2022/01/12 07:54:07;;;;;;;;;99.00;72.67;;;;;-7.30;87.65;101309.50;6318284;20;3683781;-40
2022/01/12 07:56:37;;;;;;;;;112.00;85.67;;;;;-7.26;87.46;101310.53;6318642;20;3700640;-42
2022/01/12 07:59:07;;;;;;;;;113.67;85.00;;;;;-7.02;87.56;101311.41;6320000;20;3709680;-41
2022/01/12 08:01:36;;;;;;;;;113.33;78.33;;;;;-6.92;87.84;101316.13;6285704;20;3683581;-41
2022/01/12 08:04:06;;;;;;;;;107.00;75.00;;;;;-6.48;87.33;101311.50;6320477;20;3681531;-41
2022/01/12 08:06:36;;;;;;;;;103.67;77.33;;;;;-6.31;87.40;101319.94;6318238;20;3678501;-41
2022/01/12 08:09:07;;;;;;;;;127.67;92.33;;;;;-6.26;87.65;101325.31;6285852;20;3700301;-42
2022/01/12 08:11:37;;;;;;;;;108.00;75.33;;;;;-6.01;87.68;101325.25;6286168;20;3675240;-41
2022/01/12 08:14:06;;;;;;;;;95.00;72.67;;;;;-5.69;86.78;101327.06;6320547;20;3639980;-40
2022/01/12 08:16:36;;;;;;;;;124.00;90.33;;;;;-5.51;87.36;101323.28;6318507;20;3711775;-41
2022/01/12 08:19:06;;;;;;;;;83.67;64.00;;;;;-5.16;86.29;101319.91;6286680;20;2880638;-41
2022/01/12 08:21:35;;;;;;;;;87.00;66.00;;;;;-5.03;86.03;101316.78;6317193;20;2896069;-41
2022/01/12 08:24:05;;;;;;;;;86.40;67.80;;;;;-4.93;85.82;101323.19;6283997;20;3643019;-42
2022/01/12 08:26:59;;;;;;;;;80.00;66.00;;;;;-4.63;84.43;101336.25;6284884;20;2864853;-42
2022/01/12 08:29:29;;;;;;;;;84.50;66.00;;;;;-4.38;83.42;101335.13;6282193;20;2500299;-41
2022/01/12 08:31:59;;;;;;;;;117.33;96.33;;;;;-4.47;83.18;101338.41;6285982;20;3689866;-42
2022/01/12 08:34:29;;;;;;;;;118.83;97.83;;;;;-4.44;83.53;101348.09;6281706;20;4475222;-40
2022/01/12 08:36:59;;;;;;;;;111.67;82.67;;;;;-4.88;86.39;101345.16;6319819;20;3680452;-40
2022/01/12 08:39:28;;;;;;;;;92.60;68.20;;;;;-4.64;87.82;101364.16;6283349;20;3638926;-41
2022/01/12 08:41:57;;;;;;;;;105.67;76.00;;;;;-4.64;87.45;101363.28;6284229;20;3668988;-42
2022/01/12 08:44:41;;;;;;;;;94.67;72.67;;;;;-4.33;87.13;101359.75;6318888;20;3653353;-41
2022/01/12 08:47:11;;;;;;;;;96.67;73.00;;;;;-4.30;86.34;101361.56;6318256;20;3658582;-41
2022/01/12 08:49:41;;;;;;;;;101.67;74.67;;;;;-4.17;84.71;101366.25;6318984;20;3677292;-42
2022/01/12 08:52:11;;;;;;;;;103.33;72.67;;;;;-3.90;84.68;101370.41;6318258;20;3677303;-41
2022/01/12 08:54:41;;;;;;;;;96.00;69.00;;;;;-3.70;83.12;101361.28;6318337;20;2911863;-41
2022/01/12 08:57:10;;;;;;;;;66.50;52.00;;;;;-3.35;80.06;101358.56;6319909;20;2862794;-47
2022/01/12 08:59:39;;;;;;;;;67.67;51.33;;;;;-3.15;79.15;101361.66;6288319;20;2880552;-41
2022/01/12 09:02:11;;;;;;;;;74.00;51.50;;;;;-3.32;77.46;101367.44;6319213;20;2882631;-42
2022/01/12 09:04:43;;;;;;;;;71.00;56.00;;;;;-3.32;77.59;101367.44;6282447;20;2500271;-43
2022/01/12 09:07:16;;;;;;;;;97.33;73.00;;;;;-3.09;77.99;101361.75;6287524;20;2911823;-42
2022/01/12 09:09:44;;;;;;;;;79.00;60.50;;;;;-3.12;77.35;101364.34;6313895;20;2496277;-42
2022/01/12 09:12:12;;;;;;;;;60.50;50.50;;;;;-3.32;77.30;101354.28;6285921;20;2503378;-42
2022/01/12 09:14:40;;;;;;;;;72.00;53.00;;;;;-3.23;77.10;101357.97;6280769;20;2500255;-47
2022/01/12 09:17:19;;;;;;;;;70.50;53.50;;;;;-3.02;77.15;101353.16;6284069;20;2865988;-42
2022/01/12 09:19:51;;;;;;;;;75.00;57.00;;;;;-2.62;79.15;101356.56;6284149;20;2887902;-44
2022/01/12 09:22:20;;;;;;;;;71.00;52.00;;;;;-2.97;77.32;101356.78;6282998;20;2489824;-42
2022/01/12 09:24:49;;;;;;;;;78.50;59.00;;;;;-2.63;78.11;101349.56;6282927;20;2500698;-42
2022/01/12 09:27:20;;;;;;;;;60.00;46.50;;;;;-2.49;77.66;101340.16;6283392;20;2495057;-43
2022/01/12 09:29:48;;;;;;;;;62.00;49.00;;;;;-2.10;77.23;101341.72;6288055;20;2502345;-43
2022/01/12 09:32:17;;;;;;;;;36.00;33.00;;;;;-2.01;76.62;101340.97;6284960;20;2500297;-43
2022/01/12 09:34:44;;;;;;;;;38.50;30.50;;;;;-2.03;76.66;101342.69;6286360;20;2685655;-42
2022/01/12 09:37:12;;;;;;;;;56.50;42.00;;;;;-1.71;77.00;101343.22;6284412;20;2500348;-42
2022/01/12 09:39:41;;;;;;;;;41.00;31.50;;;;;-1.66;76.47;101338.00;6282673;20;2500248;-42
2022/01/12 09:42:09;;;;;;;;;35.00;32.50;;;;;-1.68;75.91;101339.75;6281204;20;2500261;-42
2022/01/12 09:44:44;;;;;;;;;43.50;33.00;;;;;-1.81;75.51;101344.81;6283653;20;2500271;-45
2022/01/12 09:47:14;;;;;;;;;34.00;30.00;;;;;-1.48;74.68;101342.66;6284185;20;2853419;-47
2022/01/12 09:49:45;;;;;;;;;25.00;25.00;;;;;-1.49;73.64;101340.91;6285121;20;2839828;-44
2022/01/12 09:52:15;;;;;;;;;36.67;28.00;;;;;-1.52;73.80;101341.75;6283088;20;3592973;-46
2022/01/12 09:54:45;;;;;;;;;64.00;45.50;;;;;-1.35;73.70;101339.34;6286039;20;2876777;-44
2022/01/12 09:57:15;;;;;;;;;39.00;28.50;;;;;-1.61;74.40;101331.94;6281055;20;2500340;-43
2022/01/12 09:59:43;;;;;;;;;31.50;29.00;;;;;-1.08;74.40;101338.81;6287235;20;2842974;-43
2022/01/12 10:02:21;;;;;;;;;43.50;35.50;;;;;-1.34;74.47;101335.84;6282478;20;2500370;-43
2022/01/12 10:05:08;;;;;;;;;50.00;42.00;;;;;-1.15;73.82;101326.44;6281807;20;2493044;-42
2022/01/12 10:07:37;;;;;;;;;54.50;46.00;;;;;-0.91;73.74;101337.28;6281305;20;2500299;-43
2022/01/12 10:10:17;;;;;;;;;51.67;40.67;;;;;-0.90;72.74;101330.25;6281202;20;2878388;-43
2022/01/12 10:12:56;;;;;;;;;49.33;35.00;;;;;-0.81;73.42;101337.41;6317658;20;3610689;-43
2022/01/12 10:15:29;;;;;;;;;48.50;40.50;;;;;-0.81;73.05;101330.38;6315505;20;2872111;-43
2022/01/12 10:18:03;;;;;;;;;40.50;34.00;;;;;-0.67;72.37;101335.78;6283562;20;2847210;-42
2022/01/12 10:20:32;;;;;;;;;35.50;30.00;;;;;-0.70;71.35;101334.00;6282784;20;2500430;-42
2022/01/12 10:23:10;;;;;;;;;44.00;33.00;;;;;-0.63;69.58;101334.06;6284144;20;2869413;-42
2022/01/12 10:25:44;;;;;;;;;43.50;32.50;;;;;-0.38;70.06;101330.81;6286059;20;2860723;-43
2022/01/12 10:28:23;;;;;;;;;38.00;34.50;;;;;-0.39;70.18;101339.59;6282531;20;2500274;-43
2022/01/12 10:31:01;;;;;;;;;49.50;37.00;;;;;-0.21;69.41;101330.97;6282865;20;2873204;-43
2022/01/12 10:33:34;;;;;;;;;47.67;37.00;;;;;-0.34;69.77;101345.81;6285037;20;2873226;-44
2022/01/12 10:36:07;;;;;;;;;42.00;33.50;;;;;-0.61;69.37;101353.44;6313787;20;2500252;-43
2022/01/12 10:38:36;;;;;;;;;39.50;32.50;;;;;-0.69;68.97;101348.94;6285768;20;2860666;-43
2022/01/12 10:41:06;;;;;;;;;48.00;37.00;;;;;-0.57;69.27;101337.66;6278578;20;2504879;-43
2022/01/12 10:43:45;;;;;;;;;36.50;34.50;;;;;-0.53;68.17;101334.16;6285035;20;2848146;-43
2022/01/12 10:46:20;;;;;;;;;35.25;24.00;;;;;-0.67;67.43;101339.31;6285204;20;3621131;-43
2022/01/12 10:48:55;;;;;;;;;28.67;25.00;;;;;-0.50;66.99;101338.59;6314310;20;3586704;-42
2022/01/12 10:51:29;;;;;;;;;41.00;30.00;;;;;-0.25;67.59;101340.59;6281761;20;2871213;-45
2022/01/12 10:54:04;;;;;;;;;38.50;27.00;;;;;-0.13;66.77;101337.22;6281356;20;2500312;-43
2022/01/12 10:56:32;;;;;;;;;33.00;26.50;;;;;0.00;66.59;101332.91;6285267;20;2847140;-45
2022/01/12 10:59:00;;;;;;;;;37.00;31.00;;;;;-0.17;67.62;101331.88;6285315;20;2853383;-46
2022/01/12 11:01:31;;;;;;;;;41.00;36.50;;;;;-0.50;67.90;101325.41;6283197;20;2869087;-43
2022/01/12 11:04:01;;;;;;;;;44.33;33.00;;;;;-0.52;66.86;101329.81;6285182;20;2868983;-44
2022/01/12 11:06:30;;;;;;;;;43.50;33.50;;;;;-0.47;67.51;101321.06;6312835;20;2858629;-42
2022/01/12 11:08:59;;;;;;;;;29.00;27.00;;;;;-0.33;67.20;101326.47;6280414;20;2859153;-42
2022/01/12 11:11:29;;;;;;;;;52.00;41.33;;;;;-0.41;67.30;101322.88;6275587;20;2881645;-44
2022/01/12 11:13:58;;;;;;;;;45.50;38.50;;;;;-0.25;66.67;101322.13;6313893;20;2855480;-43
2022/01/12 11:16:29;;;;;;;;;46.00;35.00;;;;;-0.26;66.75;101327.41;6278920;20;2500376;-43
2022/01/12 11:19:00;;;;;;;;;40.00;35.50;;;;;-0.09;66.52;101324.91;6286581;20;2857593;-42
2022/01/12 11:21:41;;;;;;;;;44.50;37.50;;;;;-0.02;66.66;101329.38;6286077;20;2858669;-45
2022/01/12 11:24:15;;;;;;;;;37.00;32.50;;;;;0.13;65.68;101332.16;6283528;20;2500253;-41
2022/01/12 11:26:53;;;;;;;;;45.33;37.67;;;;;-0.16;67.78;101321.31;6289166;20;2875328;-42
2022/01/12 11:29:28;;;;;;;;;61.67;45.33;;;;;0.00;66.76;101319.72;6319556;20;2880569;-44
2022/01/12 11:32:12;;;;;;;;;49.50;42.00;;;;;-0.15;66.00;101324.88;6317082;20;2865893;-43
2022/01/12 11:34:41;;;;;;;;;54.00;46.00;;;;;-0.10;65.77;101324.03;6287930;20;2836732;-42
2022/01/12 11:37:16;;;;;;;;;40.00;35.50;;;;;-0.09;67.13;101325.78;6286499;20;2504506;-43
2022/01/12 11:39:47;;;;;;;;;58.50;48.50;;;;;0.26;66.42;101326.94;6290237;20;2856491;-44
2022/01/12 11:42:15;;;;;;;;;50.00;42.00;;;;;0.34;65.44;101330.50;6286452;20;2495036;-44
2022/01/12 11:44:45;;;;;;;;;47.67;39.00;;;;;0.39;64.90;101324.38;6283735;20;2878419;-43
2022/01/12 11:47:16;;;;;;;;;49.33;38.33;;;;;0.43;65.42;101322.66;6319061;20;2881569;-42
2022/01/12 11:49:52;;;;;;;;;52.00;39.00;;;;;0.44;63.91;101327.06;6320099;20;2880436;-43
2022/01/12 11:52:29;;;;;;;;;44.00;37.50;;;;;0.35;63.96;101322.59;6317145;20;2859695;-43
2022/01/12 11:55:16;;;;;;;;;27.50;26.50;;;;;0.51;64.34;101315.66;6283816;20;2508617;-43
2022/01/12 11:57:52;;;;;;;;;52.33;38.33;;;;;0.40;64.02;101306.78;6286180;20;3634638;-43
2022/01/12 12:00:29;;;;;;;;;61.00;46.00;;;;;0.39;64.60;101305.00;6318831;20;3627333;-44
2022/01/12 12:02:59;;;;;;;;;51.67;40.67;;;;;-0.05;63.64;101295.91;6319439;20;3632620;-43
2022/01/12 12:05:33;;;;;;;;;60.00;51.00;;;;;0.26;64.03;101295.22;6315005;20;2500310;-43
2022/01/12 12:08:04;;;;;;;;;39.50;38.00;;;;;0.18;63.68;101295.19;6289738;20;2863772;-43
2022/01/12 12:10:39;;;;;;;;;45.00;33.50;;;;;0.39;64.24;101299.72;6283158;20;2500333;-44
2022/01/12 12:13:11;;;;;;;;;46.33;38.67;;;;;0.30;63.76;101299.69;6286314;20;2862899;-44
2022/01/12 12:15:42;;;;;;;;;45.67;38.00;;;;;0.52;63.09;101298.91;6317917;20;2871141;-50
2022/01/12 12:18:12;;;;;;;;;51.33;38.00;;;;;0.56;62.38;101299.84;6317971;20;3646148;-48
2022/01/12 12:20:42;;;;;;;;;45.00;33.00;;;;;0.62;62.91;101294.56;6316229;20;2864820;-45
2022/01/12 12:23:10;;;;;;;;;39.50;35.50;;;;;0.74;61.60;101296.38;6286682;20;2858621;-46
2022/01/12 12:25:40;;;;;;;;;66.00;49.00;;;;;0.84;62.14;101304.38;6288415;20;2885729;-47
2022/01/12 12:28:09;;;;;;;;;43.00;38.00;;;;;0.76;62.75;101287.56;6282828;20;2857565;-45
2022/01/12 12:30:40;;;;;;;;;50.67;39.33;;;;;0.71;62.92;101305.19;6288154;20;3632585;-43
2022/01/12 12:33:13;;;;;;;;;44.00;33.00;;;;;0.47;63.10;101294.47;6314159;20;2500303;-44
2022/01/12 12:35:45;;;;;;;;;46.50;37.00;;;;;0.44;63.34;101300.63;6286870;20;2866993;-45
2022/01/12 12:38:19;;;;;;;;;39.50;35.50;;;;;0.73;61.83;101299.91;6286885;20;2854574;-44